Time;durP1;ratioP1;P1;durP2;ratioP2;P2;SDS_P1;SDS_P2;PMS_P1;PMS_P2;Temp;Humidity;BMP_temperature;BMP_pressure;BME280_temperature;BME280_humidity;BME280_pressure;Samples;Min_cycle;Max_cycle;Signal;HPM_P1;HPM_P2
2022/12/09 00:02:06;;;;;;;17.07;11.10;;;;;;;3.45;53.67;96437.34;5017862;28;20402;-70
2022/12/09 00:04:32;;;;;;;20.10;10.67;;;;;;;3.42;53.64;96435.00;4989166;28;20190;-69
2022/12/09 00:06:57;;;;;;;16.63;10.87;;;;;;;3.51;53.45;96429.06;5015087;28;20737;-70
2022/12/09 00:09:23;;;;;;;19.50;11.10;;;;;;;3.59;53.26;96427.59;5016828;28;20273;-69
2022/12/09 00:11:48;;;;;;;15.53;11.00;;;;;;;3.64;53.26;96426.28;5029037;28;20203;-68
2022/12/09 00:14:14;;;;;;;18.90;11.93;;;;;;;3.63;52.58;96423.81;5028746;28;20189;-69
2022/12/09 00:16:39;;;;;;;18.77;11.27;;;;;;;3.66;52.83;96423.53;5033400;28;20191;-68
2022/12/09 00:19:06;;;;;;;20.40;11.20;;;;;;;3.63;52.12;96416.06;5020808;28;20203;-69
2022/12/09 00:21:32;;;;;;;22.40;11.50;;;;;;;3.59;52.39;96405.09;5042355;28;20310;-69
2022/12/09 00:23:59;;;;;;;18.80;11.10;;;;;;;3.54;52.39;96415.84;5032234;28;20446;-69
2022/12/09 00:26:26;;;;;;;20.50;11.87;;;;;;;3.51;52.57;96421.31;5039307;28;20508;-68
2022/12/09 00:28:52;;;;;;;19.93;11.87;;;;;;;3.59;52.67;96418.06;5036165;28;20458;-69
2022/12/09 00:31:20;;;;;;;16.60;11.43;;;;;;;3.58;52.23;96410.41;5031075;28;20528;-68
2022/12/09 00:33:46;;;;;;;16.50;10.67;;;;;;;3.55;53.16;96411.50;5036187;28;20516;-70
2022/12/09 00:36:13;;;;;;;18.30;11.53;;;;;;;3.58;52.39;96402.63;5021045;28;20510;-67
2022/12/09 00:38:39;;;;;;;16.67;10.10;;;;;;;3.62;52.79;96404.03;5035420;28;20187;-66
2022/12/09 00:41:05;;;;;;;17.90;10.53;;;;;;;3.63;52.09;96406.50;5029945;28;20467;-68
2022/12/09 00:43:31;;;;;;;16.47;11.13;;;;;;;3.50;52.04;96405.88;5034015;28;20195;-69
2022/12/09 00:45:56;;;;;;;17.43;10.07;;;;;;;3.42;52.50;96414.28;5043820;28;20187;-70
2022/12/09 00:48:22;;;;;;;14.90;9.37;;;;;;;3.39;52.66;96406.78;5036379;28;20183;-66
2022/12/09 00:50:47;;;;;;;14.53;9.23;;;;;;;3.36;52.74;96407.84;5034397;28;20764;-68
2022/12/09 00:53:14;;;;;;;15.23;9.50;;;;;;;3.42;53.06;96411.69;5038210;28;20270;-67
2022/12/09 00:55:39;;;;;;;18.73;9.47;;;;;;;3.37;52.51;96408.66;5035239;28;20244;-68
2022/12/09 00:58:05;;;;;;;14.33;9.50;;;;;;;3.33;52.54;96407.28;5033860;28;20430;-69
2022/12/09 01:00:31;;;;;;;18.30;10.40;;;;;;;3.35;52.34;96405.38;5031943;28;20207;-70
2022/12/09 01:02:57;;;;;;;14.90;9.00;;;;;;;3.25;52.72;96410.50;5033135;28;20247;-68
2022/12/09 01:05:22;;;;;;;14.33;9.77;;;;;;;3.29;52.39;96405.88;5027709;28;20439;-70
2022/12/09 01:07:48;;;;;;;12.57;9.43;;;;;;;3.38;52.20;96402.53;5026660;28;20479;-68
2022/12/09 01:10:13;;;;;;;15.07;8.97;;;;;;;3.13;52.39;96401.97;5027518;28;20184;-71
2022/12/09 01:12:39;;;;;;;22.20;9.80;;;;;;;3.14;52.78;96411.38;5025078;28;20879;-69
2022/12/09 01:15:05;;;;;;;16.57;10.13;;;;;;;3.07;53.14;96410.22;5018152;28;20561;-69
2022/12/09 01:17:31;;;;;;;14.87;9.20;;;;;;;3.02;52.79;96412.38;5019740;28;20216;-69
2022/12/09 01:19:56;;;;;;;13.50;9.07;;;;;;;3.01;53.28;96408.16;5031144;28;20940;-69
2022/12/09 01:22:22;;;;;;;19.93;9.33;;;;;;;2.98;53.24;96406.59;5050931;28;20196;-68
2022/12/09 01:24:47;;;;;;;18.07;9.90;;;;;;;3.03;53.40;96406.22;5036168;28;20655;-69
2022/12/09 01:27:13;;;;;;;16.20;9.43;;;;;;;3.03;52.81;96398.47;5031403;28;20191;-69
2022/12/09 01:29:38;;;;;;;14.57;9.73;;;;;;;3.01;52.90;96398.59;5022735;28;20632;-69
2022/12/09 01:32:04;;;;;;;14.30;9.10;;;;;;;2.95;53.07;96395.69;5032359;28;20294;-69
2022/12/09 01:34:36;;;;;;;17.23;9.13;;;;;;;2.99;53.17;96391.91;5088789;28;20517;-68
2022/12/09 01:37:01;;;;;;;15.20;9.93;;;;;;;2.97;52.74;96401.56;5077558;28;20499;-69
2022/12/09 01:39:27;;;;;;;14.83;8.70;;;;;;;2.94;52.91;96388.88;5073395;28;20606;-68
2022/12/09 01:41:52;;;;;;;13.53;9.40;;;;;;;2.78;53.06;96403.03;5078002;28;20632;-68
2022/12/09 01:44:21;;;;;;;16.30;9.47;;;;;;;2.69;53.12;96393.44;5079856;28;20205;-68
2022/12/09 01:46:47;;;;;;;16.10;9.30;;;;;;;2.84;53.36;96386.19;5081927;28;20232;-68
2022/12/09 01:49:19;;;;;;;14.07;9.67;;;;;;;2.91;52.96;96385.56;5076911;28;20786;-69
2022/12/09 01:51:51;;;;;;;13.60;8.93;;;;;;;2.93;52.99;96385.47;5075462;28;20451;-68
2022/12/09 01:54:17;;;;;;;14.33;8.97;;;;;;;2.91;53.05;96388.16;5073070;28;20493;-68
2022/12/09 01:56:43;;;;;;;12.40;8.20;;;;;;;2.70;53.50;96380.38;5078470;28;20998;-68
2022/12/09 01:59:10;;;;;;;12.27;8.53;;;;;;;2.65;53.64;96382.50;5075185;28;20189;-71
2022/12/09 02:01:36;;;;;;;12.80;8.77;;;;;;;2.60;53.03;96382.88;5072769;28;20205;-68
2022/12/09 02:04:03;;;;;;;14.23;8.90;;;;;;;2.72;53.43;96362.16;5077501;28;20432;-69
2022/12/09 02:06:28;;;;;;;12.23;8.80;;;;;;;2.79;53.07;96363.28;5068355;28;20425;-69
2022/12/09 02:08:54;;;;;;;12.40;8.57;;;;;;;2.66;53.00;96365.22;5067526;28;20933;-69
2022/12/09 02:11:42;;;;;;;16.33;8.13;;;;;;;2.58;53.08;96361.50;5066881;28;20206;-69
2022/12/09 02:14:20;;;;;;;10.90;8.00;;;;;;;2.71;53.10;96345.78;5046099;28;20222;-68
2022/12/09 02:16:57;;;;;;;14.33;8.83;;;;;;;2.63;52.54;96337.03;5079131;28;21017;-68
2022/12/09 02:19:43;;;;;;;11.93;8.20;;;;;;;2.47;52.72;96343.41;5074004;28;20420;-68
2022/12/09 02:22:11;;;;;;;10.90;7.83;;;;;;;2.50;53.52;96338.00;5060586;28;20528;-68
2022/12/09 02:24:42;;;;;;;20.90;8.43;;;;;;;2.55;53.67;96341.03;5057190;28;22049;-69
2022/12/09 02:27:16;;;;;;;13.53;8.33;;;;;;;2.59;53.47;96342.44;5052055;28;20445;-71
2022/12/09 02:30:03;;;;;;;11.70;8.90;;;;;;;2.52;53.42;96340.47;5056316;28;20431;-70
2022/12/09 02:32:39;;;;;;;12.27;8.67;;;;;;;2.29;53.91;96354.28;5056872;28;20464;-69
2022/12/09 02:35:07;;;;;;;12.57;8.63;;;;;;;2.49;53.60;96346.72;5054328;28;20434;-69
2022/12/09 02:38:05;;;;;;;11.67;7.83;;;;;;;2.54;53.10;96347.13;5053673;28;20437;-68
2022/12/09 02:40:54;;;;;;;10.97;8.60;;;;;;;2.48;52.73;96350.25;5044696;28;20441;-69
2022/12/09 02:43:21;;;;;;;12.17;8.20;;;;;;;2.25;53.39;96350.31;5049358;28;20421;-70
2022/12/09 02:45:48;;;;;;;11.40;7.80;;;;;;;2.27;53.13;96347.59;5049778;28;20463;-70
2022/12/09 02:48:15;;;;;;;11.60;7.97;;;;;;;2.29;53.59;96335.38;5040806;28;20433;-71
2022/12/09 02:50:42;;;;;;;11.40;8.30;;;;;;;2.32;53.44;96331.69;5056812;28;20501;-69
2022/12/09 02:53:10;;;;;;;11.57;7.60;;;;;;;2.44;53.33;96325.56;5044850;28;20468;-68
2022/12/09 02:55:36;;;;;;;13.60;7.90;;;;;;;2.49;53.29;96322.59;5042111;28;20437;-69
2022/12/09 02:58:02;;;;;;;14.50;8.50;;;;;;;2.54;53.47;96316.09;5044072;28;20813;-68
2022/12/09 03:00:28;;;;;;;11.80;8.00;;;;;;;2.59;52.81;96308.81;5046597;28;20498;-69
2022/12/09 03:02:56;;;;;;;13.77;8.20;;;;;;;2.54;52.69;96303.16;5042942;28;20668;-71
2022/12/09 03:05:24;;;;;;;11.83;8.33;;;;;;;2.35;53.32;96301.25;5043157;28;20429;-67
2022/12/09 03:08:34;;;;;;;10.20;7.27;;;;;;;2.40;53.57;96312.06;5045441;28;20908;-69
2022/12/09 03:11:06;;;;;;;12.53;7.80;;;;;;;2.45;53.09;96306.50;4966882;28;20600;-68
2022/12/09 03:13:55;;;;;;;12.00;8.33;;;;;;;2.42;53.33;96301.56;4951554;28;20453;-69
2022/12/09 03:16:46;;;;;;;11.10;7.60;;;;;;;2.30;53.13;96291.28;5018997;28;20422;-72
2022/12/09 03:19:33;;;;;;;10.60;7.70;;;;;;;2.30;53.22;96293.06;5045762;28;20905;-69
2022/12/09 03:22:11;;;;;;;13.93;8.10;;;;;;;2.37;52.73;96283.84;5032847;28;20814;-70
2022/12/09 03:25:06;;;;;;;10.60;7.73;;;;;;;2.18;53.91;96278.50;5046809;28;20513;-70
2022/12/09 03:27:47;;;;;;;14.37;8.47;;;;;;;2.12;53.85;96287.59;5040730;28;20549;-69
2022/12/09 03:30:13;;;;;;;12.60;7.70;;;;;;;2.11;53.24;96293.69;5049200;28;20528;-68
2022/12/09 03:32:40;;;;;;;12.77;8.77;;;;;;;2.09;53.92;96285.25;5053533;28;20524;-69
2022/12/09 03:35:17;;;;;;;10.10;7.70;;;;;;;2.12;53.63;96285.00;5054456;28;20621;-69
2022/12/09 03:37:43;;;;;;;11.50;8.23;;;;;;;2.17;53.31;96293.19;5053929;28;20424;-69
2022/12/09 03:40:11;;;;;;;13.73;8.03;;;;;;;2.25;53.21;96283.06;5054545;28;20509;-69
2022/12/09 03:42:46;;;;;;;10.43;7.70;;;;;;;2.20;53.19;96274.84;5052212;28;20203;-70
2022/12/09 03:45:15;;;;;;;12.80;9.13;;;;;;;2.21;53.63;96271.31;5054135;28;20478;-68
2022/12/09 03:47:40;;;;;;;12.67;8.70;;;;;;;2.14;53.37;96272.78;5063498;28;20432;-69
2022/12/09 03:50:06;;;;;;;12.77;7.73;;;;;;;2.13;53.17;96279.69;5059993;28;20418;-69
2022/12/09 03:52:43;;;;;;;11.40;8.17;;;;;;;1.80;53.38;96283.19;5069444;28;20260;-69
2022/12/09 03:55:25;;;;;;;10.83;7.47;;;;;;;1.80;54.26;96289.19;5060931;28;21004;-69
2022/12/09 03:57:55;;;;;;;13.00;8.27;;;;;;;1.81;54.61;96288.25;5060368;28;20416;-69
2022/12/09 04:00:20;;;;;;;14.90;9.10;;;;;;;1.95;54.60;96292.31;5056048;28;20418;-68
2022/12/09 04:02:46;;;;;;;14.13;8.97;;;;;;;2.10;54.18;96286.88;5058712;28;20939;-68
2022/12/09 04:05:11;;;;;;;12.90;9.20;;;;;;;2.18;54.21;96281.91;5061054;28;20175;-67
2022/12/09 04:07:37;;;;;;;15.20;8.10;;;;;;;2.21;53.66;96281.66;5064434;28;20174;-70
2022/12/09 04:10:03;;;;;;;11.40;8.13;;;;;;;2.24;53.44;96276.25;5057957;28;20747;-68
2022/12/09 04:12:29;;;;;;;14.03;8.97;;;;;;;2.30;53.17;96273.16;5063400;28;20202;-69
2022/12/09 04:14:54;;;;;;;12.10;9.00;;;;;;;2.35;53.24;96266.81;5064966;28;20801;-70
2022/12/09 04:17:20;;;;;;;16.33;9.10;;;;;;;2.34;52.88;96263.38;5052785;28;20258;-69
2022/12/09 04:19:45;;;;;;;18.77;9.20;;;;;;;2.21;52.57;96266.16;5071145;28;20265;-68
2022/12/09 04:22:11;;;;;;;15.00;9.33;;;;;;;2.06;53.50;96259.63;5057053;28;20290;-71
2022/12/09 04:24:36;;;;;;;13.47;9.37;;;;;;;2.07;53.58;96259.53;5059830;28;20585;-70
2022/12/09 04:27:02;;;;;;;20.10;10.63;;;;;;;2.05;53.55;96258.81;5051826;28;20661;-68
2022/12/09 04:29:27;;;;;;;14.83;9.47;;;;;;;2.05;53.83;96248.47;5062857;28;20695;-70
2022/12/09 04:31:53;;;;;;;16.10;10.30;;;;;;;2.10;53.74;96248.09;5051955;28;20198;-69
2022/12/09 04:34:18;;;;;;;15.00;10.13;;;;;;;2.07;53.96;96238.00;5049994;28;20329;-71
2022/12/09 04:36:43;;;;;;;18.00;11.10;;;;;;;2.08;53.99;96235.28;5044445;28;20179;-69
2022/12/09 04:39:09;;;;;;;19.57;12.60;;;;;;;2.10;53.84;96233.41;5049736;28;20198;-69
2022/12/09 04:41:35;;;;;;;21.73;11.67;;;;;;;2.19;53.56;96229.25;5043580;28;20729;-70
2022/12/09 04:44:01;;;;;;;17.37;10.57;;;;;;;2.16;53.58;96214.00;5050532;28;20281;-69
2022/12/09 04:46:26;;;;;;;20.40;11.10;;;;;;;2.17;53.37;96220.00;5055667;28;20451;-69
2022/12/09 04:48:52;;;;;;;16.27;10.77;;;;;;;2.12;53.48;96217.78;5046728;28;20175;-69
2022/12/09 04:51:17;;;;;;;22.37;12.23;;;;;;;1.96;54.05;96210.41;5059572;28;20194;-69
2022/12/09 04:53:43;;;;;;;19.40;11.60;;;;;;;2.12;53.89;96212.63;5056685;28;20199;-71
2022/12/09 04:56:14;;;;;;;16.50;11.37;;;;;;;2.10;53.77;96199.78;5049897;28;20196;-69
2022/12/09 04:58:40;;;;;;;16.67;10.60;;;;;;;2.13;54.26;96202.13;5050376;28;20183;-68
2022/12/09 05:01:07;;;;;;;15.33;10.83;;;;;;;2.16;54.19;96203.66;5053384;28;20957;-68
2022/12/09 05:03:33;;;;;;;14.67;10.10;;;;;;;2.13;54.01;96207.31;5050472;28;20452;-68
2022/12/09 05:05:58;;;;;;;16.03;10.03;;;;;;;2.14;53.74;96197.81;5052641;28;20461;-68
2022/12/09 05:08:23;;;;;;;17.20;9.97;;;;;;;1.96;54.30;96195.75;5046944;28;20175;-69
2022/12/09 05:10:49;;;;;;;12.57;10.13;;;;;;;1.91;54.23;96187.53;5044634;28;20301;-69
2022/12/09 05:13:15;;;;;;;16.83;11.17;;;;;;;1.96;54.75;96193.16;5048989;28;20249;-69
2022/12/09 05:15:40;;;;;;;16.40;10.80;;;;;;;2.08;54.20;96188.75;5052294;28;20327;-73
2022/12/09 05:18:06;;;;;;;15.67;11.00;;;;;;;2.00;53.95;96198.91;5057592;28;20178;-68
2022/12/09 05:20:31;;;;;;;15.80;10.10;;;;;;;2.09;54.75;96200.75;5053503;28;20179;-71
2022/12/09 05:22:56;;;;;;;16.90;10.33;;;;;;;2.08;54.58;96198.28;5057547;28;20170;-69
2022/12/09 05:25:22;;;;;;;15.30;9.80;;;;;;;2.17;54.00;96202.72;5049355;28;20219;-70
2022/12/09 05:27:48;;;;;;;16.20;9.53;;;;;;;2.14;54.05;96198.63;5050270;28;20182;-70
2022/12/09 05:30:13;;;;;;;15.00;10.30;;;;;;;2.19;53.96;96185.31;5051373;28;20175;-68
2022/12/09 05:32:39;;;;;;;15.40;10.53;;;;;;;2.18;53.48;96193.19;5051093;28;20461;-69
2022/12/09 05:35:05;;;;;;;14.37;10.07;;;;;;;2.17;54.29;96183.81;5057941;28;20198;-70
2022/12/09 05:37:30;;;;;;;16.00;9.83;;;;;;;2.18;54.03;96182.88;5047896;28;20202;-70
2022/12/09 05:39:56;;;;;;;14.93;9.90;;;;;;;2.23;54.04;96176.38;5053930;28;20179;-70
2022/12/09 05:42:21;;;;;;;19.97;12.07;;;;;;;2.15;53.99;96181.31;5048172;28;20245;-69
2022/12/09 05:44:47;;;;;;;22.73;13.00;;;;;;;1.95;54.36;96177.78;5054411;28;20186;-69
2022/12/09 05:47:12;;;;;;;17.70;12.37;;;;;;;1.98;54.66;96178.38;5059643;28;20265;-69
2022/12/09 05:49:37;;;;;;;21.20;13.17;;;;;;;1.83;55.43;96175.22;5049704;28;20352;-68
2022/12/09 05:52:04;;;;;;;18.83;12.10;;;;;;;1.99;54.98;96164.50;5049966;28;20298;-69
2022/12/09 05:54:29;;;;;;;17.77;12.20;;;;;;;2.06;54.86;96172.56;5047919;28;20207;-69
2022/12/09 05:56:56;;;;;;;17.20;11.70;;;;;;;1.97;55.15;96176.72;5048598;28;20860;-69
2022/12/09 05:59:22;;;;;;;17.50;12.20;;;;;;;2.08;55.12;96162.91;5048973;28;20183;-67
2022/12/09 06:01:47;;;;;;;18.87;11.33;;;;;;;2.11;55.13;96167.03;5054688;28;20439;-69
2022/12/09 06:04:13;;;;;;;20.00;12.20;;;;;;;2.17;55.04;96165.72;5049003;28;20634;-68
2022/12/09 06:06:38;;;;;;;16.97;11.30;;;;;;;2.25;54.87;96158.97;5049807;28;20203;-69
2022/12/09 06:09:10;;;;;;;19.20;12.87;;;;;;;2.26;54.85;96162.38;5051264;28;20226;-69
2022/12/09 06:11:36;;;;;;;21.13;12.13;;;;;;;2.06;55.16;96153.66;5053830;28;20309;-69
2022/12/09 06:14:01;;;;;;;20.13;12.17;;;;;;;2.06;55.58;96149.31;5051255;28;20868;-71
2022/12/09 06:16:27;;;;;;;16.10;11.40;;;;;;;2.07;55.05;96150.13;5052037;28;20441;-69
2022/12/09 06:18:52;;;;;;;22.53;13.10;;;;;;;2.09;55.10;96148.22;5049619;28;20180;-69
2022/12/09 06:21:19;;;;;;;17.73;12.70;;;;;;;2.15;55.26;96151.13;5053897;28;20298;-69
2022/12/09 06:23:44;;;;;;;18.43;12.67;;;;;;;2.15;54.66;96147.72;5053295;28;20178;-70
2022/12/09 06:26:28;;;;;;;21.30;14.37;;;;;;;2.22;55.03;96137.69;5052371;28;20425;-69
2022/12/09 06:28:54;;;;;;;20.10;14.47;;;;;;;2.35;54.81;96142.69;5057365;28;20190;-68
2022/12/09 06:31:20;;;;;;;21.60;15.00;;;;;;;2.30;54.70;96138.69;5051376;28;20446;-68
2022/12/09 06:33:45;;;;;;;17.70;12.73;;;;;;;2.38;54.80;96143.25;5056751;28;20461;-68
2022/12/09 06:36:11;;;;;;;22.33;14.33;;;;;;;2.36;54.92;96139.16;5049204;28;20237;-69
2022/12/09 06:38:36;;;;;;;19.43;13.43;;;;;;;2.17;55.13;96143.25;5060344;28;20175;-68
2022/12/09 06:41:10;;;;;;;24.63;14.33;;;;;;;2.32;55.29;96148.94;5054025;28;20212;-69
2022/12/09 06:43:36;;;;;;;17.00;12.30;;;;;;;2.36;54.92;96155.47;5052035;28;20187;-67
2022/12/09 06:46:01;;;;;;;21.03;12.97;;;;;;;2.32;54.72;96154.13;5063907;28;20433;-70
2022/12/09 06:48:27;;;;;;;22.00;13.60;;;;;;;2.38;55.41;96147.63;5068805;28;20420;-69
2022/12/09 06:50:52;;;;;;;20.07;14.10;;;;;;;2.34;54.90;96141.84;5067419;28;21019;-69
2022/12/09 06:53:18;;;;;;;17.93;12.97;;;;;;;2.32;55.20;96153.28;5061277;28;20203;-67
2022/12/09 06:55:43;;;;;;;24.30;12.47;;;;;;;2.30;55.24;96151.63;5067591;28;20642;-69
2022/12/09 06:58:09;;;;;;;19.93;12.67;;;;;;;2.26;55.61;96155.44;5060577;28;20185;-70
2022/12/09 07:00:34;;;;;;;23.30;12.70;;;;;;;2.22;55.71;96154.03;5067490;28;20190;-71
2022/12/09 07:03:00;;;;;;;27.20;13.33;;;;;;;2.17;55.79;96145.84;5063931;28;20205;-69
2022/12/09 07:05:25;;;;;;;16.60;11.03;;;;;;;2.27;55.75;96144.13;5067110;28;20667;-70
2022/12/09 07:07:51;;;;;;;18.70;11.60;;;;;;;2.39;55.66;96144.09;5046797;28;20189;-70
2022/12/09 07:10:17;;;;;;;23.70;15.00;;;;;;;2.34;55.58;96141.03;5064656;28;20184;-69
2022/12/09 07:12:43;;;;;;;19.13;13.20;;;;;;;2.33;55.57;96134.22;5031475;28;20585;-70
2022/12/09 07:15:09;;;;;;;20.67;13.07;;;;;;;2.23;56.18;96137.59;5056526;28;20450;-69
2022/12/09 07:17:34;;;;;;;22.93;12.73;;;;;;;2.23;56.33;96134.16;5065923;28;20191;-69
2022/12/09 07:20:00;;;;;;;18.57;12.27;;;;;;;2.40;56.04;96140.53;5060117;28;20785;-70
2022/12/09 07:22:25;;;;;;;19.30;13.20;;;;;;;2.45;55.99;96130.63;5068048;28;20282;-70
2022/12/09 07:24:51;;;;;;;24.43;14.10;;;;;;;2.50;55.83;96127.66;5066751;28;20178;-68
2022/12/09 07:27:16;;;;;;;18.80;12.73;;;;;;;2.44;56.09;96131.56;5068551;28;20178;-68
2022/12/09 07:29:42;;;;;;;23.50;12.50;;;;;;;2.52;55.82;96129.16;5052210;28;20588;-69
2022/12/09 07:32:09;;;;;;;16.90;11.83;;;;;;;2.52;55.73;96133.53;5058848;28;20226;-68
2022/12/09 07:34:34;;;;;;;18.23;11.87;;;;;;;2.58;55.94;96139.00;5054704;28;20212;-67
2022/12/09 07:36:59;;;;;;;19.37;12.90;;;;;;;2.64;56.23;96136.88;5053285;28;21062;-69
2022/12/09 07:39:25;;;;;;;18.70;12.53;;;;;;;2.63;55.48;96133.44;5051353;28;20183;-69
2022/12/09 07:41:52;;;;;;;16.50;12.00;;;;;;;2.64;56.06;96135.09;5056242;28;20561;-69
2022/12/09 07:44:17;;;;;;;17.50;11.97;;;;;;;2.67;56.41;96132.25;5052667;28;20191;-69
2022/12/09 07:46:43;;;;;;;22.90;13.30;;;;;;;2.57;56.34;96132.19;5064258;28;20421;-70
2022/12/09 07:49:09;;;;;;;19.80;12.43;;;;;;;2.57;56.59;96127.00;5054389;28;20712;-67
2022/12/09 07:51:35;;;;;;;22.93;13.67;;;;;;;2.65;56.52;96133.34;5057464;28;20237;-70
2022/12/09 07:54:00;;;;;;;19.50;12.77;;;;;;;2.67;56.38;96131.41;5059112;28;20481;-70
2022/12/09 07:56:27;;;;;;;25.03;13.40;;;;;;;2.69;56.38;96129.50;5059366;28;20202;-70
2022/12/09 07:58:53;;;;;;;20.07;13.23;;;;;;;2.74;56.63;96132.53;5054571;28;20194;-70
2022/12/09 08:01:24;;;;;;;21.70;13.20;;;;;;;2.86;57.02;96125.50;5052624;28;20968;-69
2022/12/09 08:03:50;;;;;;;21.57;13.83;;;;;;;2.94;56.33;96127.44;5049959;28;20639;-68
2022/12/09 08:06:18;;;;;;;27.27;15.10;;;;;;;3.00;56.54;96124.34;5050467;28;20525;-70
2022/12/09 08:08:43;;;;;;;40.33;17.30;;;;;;;3.05;56.17;96130.75;5058997;28;20229;-70
2022/12/09 08:11:11;;;;;;;42.40;16.50;;;;;;;3.16;56.16;96127.22;5062650;28;21050;-70
2022/12/09 08:13:36;;;;;;;34.97;17.30;;;;;;;3.27;56.02;96123.72;5056302;28;20602;-70
2022/12/09 08:16:03;;;;;;;32.70;18.97;;;;;;;3.28;56.26;96121.94;5063121;28;20444;-69
2022/12/09 08:18:29;;;;;;;31.20;17.90;;;;;;;3.34;56.17;96117.03;5059072;28;20251;-70
2022/12/09 08:20:54;;;;;;;28.33;15.90;;;;;;;3.36;55.81;96122.09;5063895;28;20464;-69
2022/12/09 08:23:19;;;;;;;30.30;16.80;;;;;;;3.40;56.39;96118.31;5062853;28;20167;-70
2022/12/09 08:25:45;;;;;;;34.73;17.30;;;;;;;3.50;56.87;96107.94;5055334;28;20262;-70
2022/12/09 08:28:10;;;;;;;27.30;15.87;;;;;;;3.64;56.44;96104.13;5053371;28;20595;-69
2022/12/09 08:30:36;;;;;;;33.03;16.20;;;;;;;3.67;56.20;96111.63;5057608;28;20593;-69
2022/12/09 08:33:01;;;;;;;28.13;17.33;;;;;;;3.76;56.08;96116.00;5060789;28;20214;-69
2022/12/09 08:35:28;;;;;;;24.03;16.03;;;;;;;3.73;55.83;96108.50;5070554;28;20278;-69
2022/12/09 08:37:54;;;;;;;27.13;15.53;;;;;;;3.83;56.22;96104.13;5063664;28;20187;-69
2022/12/09 08:40:19;;;;;;;23.00;16.03;;;;;;;3.94;56.13;96115.31;5061689;28;20440;-69
2022/12/09 08:42:44;;;;;;;28.77;15.20;;;;;;;3.96;55.89;96109.03;5064036;28;20284;-70
2022/12/09 08:45:10;;;;;;;24.30;14.77;;;;;;;3.87;55.77;96111.63;5062538;28;20226;-69
2022/12/09 08:47:35;;;;;;;22.13;14.20;;;;;;;3.94;56.16;96099.75;5057632;28;20269;-70
2022/12/09 08:50:01;;;;;;;24.83;12.90;;;;;;;4.09;55.35;96098.38;5057658;28;20219;-69
2022/12/09 08:52:26;;;;;;;19.33;12.83;;;;;;;4.01;55.27;96100.84;5063229;28;20206;-71
2022/12/09 08:54:52;;;;;;;20.17;11.63;;;;;;;4.05;54.16;96093.59;5061382;28;20186;-70
2022/12/09 08:57:22;;;;;;;20.37;13.67;;;;;;;4.20;54.16;96093.97;5060999;28;20270;-70
2022/12/09 08:59:48;;;;;;;19.67;11.97;;;;;;;4.17;55.10;96096.84;5058919;28;20278;-70
2022/12/09 09:02:13;;;;;;;19.40;12.10;;;;;;;4.24;54.20;96090.16;5053176;28;20537;-70
2022/12/09 09:04:38;;;;;;;19.77;11.20;;;;;;;4.25;54.78;96092.59;5064938;28;20179;-70
2022/12/09 09:07:04;;;;;;;15.47;11.70;;;;;;;4.34;54.68;96087.56;5052432;28;20261;-70
2022/12/09 09:09:29;;;;;;;20.20;12.20;;;;;;;4.34;54.82;96083.16;5058966;28;20584;-71
2022/12/09 09:11:55;;;;;;;17.17;11.53;;;;;;;4.33;54.70;96080.72;5047034;28;20235;-70
2022/12/09 09:14:20;;;;;;;20.83;12.33;;;;;;;4.33;54.88;96086.72;5047510;28;20698;-69
2022/12/09 09:16:45;;;;;;;21.90;12.50;;;;;;;4.38;54.05;96092.31;5065876;28;20209;-70
2022/12/09 09:19:17;;;;;;;18.73;12.50;;;;;;;4.37;53.89;96090.69;5052258;28;20261;-70
2022/12/09 09:21:43;;;;;;;21.87;13.20;;;;;;;4.28;54.60;96096.72;5057019;28;20343;-69
2022/12/09 09:24:14;;;;;;;24.87;12.73;;;;;;;4.33;55.35;96094.50;5059900;28;20426;-70
2022/12/09 09:26:41;;;;;;;24.27;15.27;;;;;;;4.33;55.31;96097.09;5042785;28;20186;-70
2022/12/09 09:29:07;;;;;;;20.60;13.20;;;;;;;4.40;54.92;96095.59;5051525;28;20505;-68
2022/12/09 09:31:33;;;;;;;21.13;15.10;;;;;;;4.50;54.75;96090.34;5053201;28;20523;-70
2022/12/09 09:33:58;;;;;;;17.53;12.60;;;;;;;4.55;54.61;96084.75;5050135;28;20552;-70
2022/12/09 09:36:24;;;;;;;21.80;14.40;;;;;;;4.57;54.74;96085.41;5050684;28;21119;-70
2022/12/09 09:38:52;;;;;;;21.53;13.30;;;;;;;4.56;54.72;96084.63;5045837;28;20231;-70
2022/12/09 09:41:45;;;;;;;19.90;13.27;;;;;;;4.44;54.65;96086.56;5043800;28;20207;-71
2022/12/09 09:44:36;;;;;;;20.30;13.10;;;;;;;4.58;54.65;96080.09;5039848;28;20423;-70
2022/12/09 09:47:09;;;;;;;23.97;12.50;;;;;;;4.59;54.99;96073.13;5026004;28;20453;-70
2022/12/09 09:49:59;;;;;;;19.73;13.30;;;;;;;4.61;54.28;96071.22;5036674;28;20488;-69
2022/12/09 09:52:26;;;;;;;20.67;13.43;;;;;;;4.61;54.70;96072.00;5048466;28;20449;-69
2022/12/09 09:54:52;;;;;;;20.67;13.97;;;;;;;4.62;53.76;96062.47;5043616;28;20472;-70
2022/12/09 09:57:29;;;;;;;23.97;12.97;;;;;;;4.49;54.16;96072.34;5050707;28;20426;-69
2022/12/09 10:00:09;;;;;;;21.03;14.10;;;;;;;4.55;54.40;96070.00;5055784;28;20183;-70
2022/12/09 10:02:55;;;;;;;17.63;13.10;;;;;;;4.52;54.67;96067.69;5055907;28;20919;-70
2022/12/09 10:05:30;;;;;;;24.33;13.88;;;;;;;4.55;54.48;96056.19;5056568;28;20896;-71
2022/12/09 10:08:26;;;;;;;20.73;14.30;;;;;;;4.63;54.26;96052.88;5054454;28;20185;-70
2022/12/09 10:11:17;;;;;;;21.00;13.90;;;;;;;4.71;54.28;96046.03;5054043;28;20495;-70
2022/12/09 10:14:04;;;;;;;20.50;13.30;;;;;;;4.72;53.44;96039.88;5053267;28;20454;-70
2022/12/09 10:16:41;;;;;;;17.20;13.17;;;;;;;4.72;52.57;96042.47;5041345;28;20413;-71
2022/12/09 10:19:18;;;;;;;18.60;13.03;;;;;;;4.76;52.75;96043.00;5034611;28;20425;-71
2022/12/09 10:21:46;;;;;;;27.40;13.30;;;;;;;4.85;52.36;96041.31;5065980;28;20447;-71
2022/12/09 10:24:32;;;;;;;17.90;12.83;;;;;;;4.92;52.17;96052.75;5062343;28;20500;-70
2022/12/09 10:27:10;;;;;;;20.67;14.23;;;;;;;4.94;52.74;96045.63;5067272;28;20421;-70
2022/12/09 10:29:47;;;;;;;21.03;13.63;;;;;;;4.97;52.31;96049.72;5054474;28;20470;-72
2022/12/09 10:32:19;;;;;;;23.87;14.03;;;;;;;4.97;52.22;96047.94;5057064;28;20571;-70
2022/12/09 10:34:46;;;;;;;21.57;14.40;;;;;;;5.02;52.33;96056.13;5060987;28;20456;-70
2022/12/09 10:37:34;;;;;;;24.87;14.43;;;;;;;5.07;52.52;96045.28;5069317;28;20431;-71
2022/12/09 10:40:06;;;;;;;22.57;15.07;;;;;;;5.00;52.05;96033.84;5058331;28;20913;-71
2022/12/09 10:45:23;;;;;;;22.00;15.00;;;;;;;5.11;52.63;96019.84;5067993;28;20527;-71
2022/12/09 10:47:51;;;;;;;24.13;15.27;;;;;;;5.10;52.47;96023.41;5055289;28;20512;-70
2022/12/09 10:50:33;;;;;;;27.23;14.90;;;;;;;5.07;52.13;96019.31;5056586;28;20190;-70
2022/12/09 10:53:05;;;;;;;23.03;15.00;;;;;;;4.98;52.05;96025.41;5057032;28;21066;-70
2022/12/09 10:55:37;;;;;;;22.97;15.13;;;;;;;4.93;52.88;96020.63;5045395;28;20569;-70
2022/12/09 10:58:09;;;;;;;27.67;14.97;;;;;;;4.97;52.88;96021.16;5047481;28;20469;-70
2022/12/09 11:00:34;;;;;;;21.60;14.53;;;;;;;5.01;52.83;96015.53;5050219;28;21015;-69
2022/12/09 11:03:00;;;;;;;24.03;15.13;;;;;;;5.05;52.96;96010.84;5055599;28;20564;-70
2022/12/09 11:05:27;;;;;;;23.53;15.03;;;;;;;5.08;52.81;96008.78;5047034;28;20187;-70
2022/12/09 11:07:54;;;;;;;32.23;15.30;;;;;;;5.08;52.83;96015.75;5053688;28;20203;-70
2022/12/09 11:10:22;;;;;;;22.80;14.83;;;;;;;5.07;52.75;96016.72;5059395;28;20422;-70
2022/12/09 11:13:01;;;;;;;20.87;14.93;;;;;;;5.08;52.41;96015.75;5056652;28;20491;-70
2022/12/09 11:15:33;;;;;;;24.13;16.27;;;;;;;5.04;52.59;96004.03;5062928;28;20440;-70
2022/12/09 11:18:06;;;;;;;24.77;15.10;;;;;;;5.04;52.74;96014.41;5059144;28;20440;-69
2022/12/09 11:20:33;;;;;;;24.67;15.77;;;;;;;5.06;52.79;96008.09;5061727;28;20486;-71
2022/12/09 11:23:12;;;;;;;23.40;15.20;;;;;;;5.08;52.67;96011.38;5063254;28;20438;-70
2022/12/09 11:25:37;;;;;;;22.37;15.00;;;;;;;5.02;52.38;95993.81;5062090;28;20505;-70
2022/12/09 11:28:13;;;;;;;26.93;16.13;;;;;;;4.98;53.31;95997.66;5058343;28;20417;-70
2022/12/09 11:30:48;;;;;;;25.37;15.77;;;;;;;5.06;53.12;95989.13;5061940;28;20254;-70
2022/12/09 11:33:13;;;;;;;25.83;15.73;;;;;;;5.16;52.84;95981.28;5053345;28;20465;-70
2022/12/09 11:35:41;;;;;;;26.77;15.30;;;;;;;5.15;52.81;95987.44;5066949;28;20929;-70
2022/12/09 11:38:35;;;;;;;23.63;15.10;;;;;;;5.19;52.45;95981.78;5058883;28;20232;-70